createdAt,value
2017-10-28T00:02:23.398Z,2.07
2017-10-28T00:04:51.241Z,2.03
2017-10-28T00:07:18.670Z,2.80
2017-10-28T00:09:56.225Z,3.00
2017-10-28T00:12:23.645Z,1.70
2017-10-28T00:14:51.100Z,2.20
2017-10-28T00:17:18.512Z,2.37
2017-10-28T00:19:46.041Z,2.67
2017-10-28T00:22:13.480Z,2.30
2017-10-28T00:24:41.672Z,2.37
2017-10-28T00:27:09.105Z,2.30
2017-10-28T00:29:36.517Z,1.60
2017-10-28T00:32:09.697Z,1.70
2017-10-28T00:34:42.842Z,1.97
2017-10-28T00:37:10.316Z,3.00
2017-10-28T00:39:37.741Z,2.50
2017-10-28T00:42:05.226Z,2.40
2017-10-28T00:44:33.041Z,2.25
2017-10-28T00:47:00.627Z,2.78
2017-10-28T00:49:28.067Z,1.93
2017-10-28T00:51:55.515Z,2.47
2017-10-28T00:54:23.726Z,2.70
2017-10-28T00:56:51.161Z,2.00
2017-10-28T00:59:18.634Z,1.90
2017-10-28T01:01:46.342Z,2.80
2017-10-28T01:04:13.762Z,2.50
2017-10-28T01:06:41.196Z,2.57
2017-10-28T01:09:08.627Z,3.70
2017-10-28T01:11:36.142Z,4.07
2017-10-28T01:14:03.574Z,2.45
2017-10-28T01:16:30.996Z,2.60
2017-10-28T01:18:58.463Z,2.80
2017-10-28T01:21:25.880Z,2.97
2017-10-28T01:23:53.306Z,2.33
2017-10-28T01:26:20.794Z,2.30
2017-10-28T01:28:48.235Z,2.57
2017-10-28T01:31:15.653Z,2.70
2017-10-28T01:33:43.096Z,2.67
2017-10-28T01:36:10.609Z,2.50
2017-10-28T01:38:38.063Z,1.60
2017-10-28T01:41:05.521Z,2.30
2017-10-28T01:43:32.945Z,2.00
2017-10-28T01:46:00.401Z,2.45
2017-10-28T01:48:27.817Z,2.57
2017-10-28T01:50:55.244Z,2.85
2017-10-28T01:53:22.697Z,2.85
2017-10-28T01:55:50.151Z,3.30
2017-10-28T01:58:17.832Z,3.17
2017-10-28T02:00:45.301Z,2.85
2017-10-28T02:03:12.781Z,2.65
2017-10-28T02:05:40.233Z,2.97
2017-10-28T02:08:07.751Z,3.47
2017-10-28T02:10:35.194Z,2.92
2017-10-28T02:13:02.627Z,2.70
2017-10-28T02:15:30.071Z,2.50
2017-10-28T02:17:57.497Z,2.35
2017-10-28T02:20:24.950Z,2.50
2017-10-28T02:22:52.393Z,2.87
2017-10-28T02:25:19.854Z,4.50
2017-10-28T02:27:47.295Z,2.70
2017-10-28T02:30:14.725Z,3.47
2017-10-28T02:32:42.173Z,2.95
2017-10-28T02:35:09.728Z,3.30
2017-10-28T02:37:37.195Z,3.05
2017-10-28T02:40:05.218Z,3.53
2017-10-28T02:42:32.656Z,3.65
2017-10-28T02:45:00.115Z,3.33
2017-10-28T02:47:27.563Z,4.10
2017-10-28T02:49:55.004Z,3.60
2017-10-28T02:52:22.810Z,3.85
2017-10-28T02:54:50.235Z,4.78
2017-10-28T02:57:17.719Z,4.37
2017-10-28T02:59:45.175Z,5.15
2017-10-28T03:02:12.626Z,4.93
2017-10-28T03:04:40.063Z,4.72
2017-10-28T03:07:07.509Z,5.70
2017-10-28T03:09:34.942Z,4.97
2017-10-28T03:12:02.448Z,5.67
2017-10-28T03:14:29.901Z,4.25
2017-10-28T03:16:57.372Z,4.00
2017-10-28T03:19:24.973Z,4.47
2017-10-28T03:21:52.409Z,4.60
2017-10-28T03:24:19.826Z,3.83
2017-10-28T03:26:47.240Z,4.43
2017-10-28T03:29:15.058Z,4.85
2017-10-28T03:31:42.537Z,3.60
2017-10-28T03:34:09.958Z,4.28
2017-10-28T03:36:37.410Z,3.97
2017-10-28T03:39:04.852Z,3.75
2017-10-28T03:41:32.667Z,4.15
2017-10-28T03:44:00.094Z,4.82
2017-10-28T03:46:27.583Z,3.67
2017-10-28T03:48:55.354Z,4.00
2017-10-28T03:51:22.875Z,4.37
2017-10-28T03:53:50.349Z,4.13
2017-10-28T03:56:17.817Z,3.72
2017-10-28T03:58:45.245Z,4.70
2017-10-28T04:01:13.026Z,4.07
2017-10-28T04:03:40.473Z,4.45
2017-10-28T04:06:07.906Z,4.95
2017-10-28T04:08:35.400Z,4.07
2017-10-28T04:11:02.845Z,4.47
2017-10-28T04:13:30.342Z,4.18
2017-10-28T04:15:57.760Z,4.50
2017-10-28T04:18:25.201Z,5.10
2017-10-28T04:20:52.645Z,4.28
2017-10-28T04:23:20.063Z,4.20
2017-10-28T04:25:47.582Z,4.53
2017-10-28T04:28:15.704Z,4.00
2017-10-28T04:30:43.435Z,4.13
2017-10-28T04:33:10.885Z,4.03
2017-10-28T04:35:38.319Z,4.07
2017-10-28T04:38:05.761Z,4.27
2017-10-28T04:40:33.209Z,5.20
2017-10-28T04:43:00.733Z,4.57
2017-10-28T04:45:28.221Z,4.80
2017-10-28T04:47:55.639Z,4.53
2017-10-28T04:50:23.097Z,5.20
2017-10-28T04:52:50.542Z,5.32
2017-10-28T04:55:17.964Z,4.97
2017-10-28T04:57:45.407Z,5.03
2017-10-28T05:00:12.924Z,4.47
2017-10-28T05:02:40.619Z,4.40
2017-10-28T05:05:08.036Z,4.90
2017-10-28T05:07:35.509Z,5.57
2017-10-28T05:10:02.954Z,5.05
2017-10-28T05:12:30.390Z,6.10
2017-10-28T05:14:57.975Z,4.82
2017-10-28T05:17:25.433Z,5.70
2017-10-28T05:19:52.881Z,5.20
2017-10-28T05:22:20.367Z,6.57
2017-10-28T05:24:47.803Z,5.47
2017-10-28T05:27:15.247Z,5.07
2017-10-28T05:29:42.693Z,5.57
2017-10-28T05:32:10.139Z,5.15
2017-10-28T05:34:37.582Z,5.70
2017-10-28T05:37:05.090Z,5.30
2017-10-28T05:39:32.528Z,5.32
2017-10-28T05:42:00.019Z,6.18
2017-10-28T05:44:27.456Z,5.25
2017-10-28T05:46:55.908Z,5.45
2017-10-28T05:49:23.361Z,7.22
2017-10-28T05:51:50.833Z,4.93
2017-10-28T05:54:18.353Z,5.20
2017-10-28T05:56:45.840Z,4.68
2017-10-28T05:59:13.265Z,4.00
2017-10-28T06:01:40.748Z,4.05
2017-10-28T06:04:08.237Z,4.30
2017-10-28T06:06:35.724Z,4.78
2017-10-28T06:09:03.154Z,4.72
2017-10-28T06:11:31.777Z,4.50
2017-10-28T06:13:59.232Z,4.55
2017-10-28T06:16:26.731Z,4.35
2017-10-28T06:18:54.183Z,4.62
2017-10-28T06:21:21.601Z,3.97
2017-10-28T06:23:49.047Z,4.10
2017-10-28T06:26:16.508Z,4.62
2017-10-28T06:28:43.948Z,4.55
2017-10-28T06:31:11.462Z,3.40
2017-10-28T06:33:39.079Z,3.57
2017-10-28T06:36:06.940Z,3.22
2017-10-28T06:38:34.366Z,3.20
2017-10-28T06:41:01.842Z,3.75
2017-10-28T06:43:29.269Z,3.47
2017-10-28T06:45:56.733Z,4.35
2017-10-28T06:48:24.511Z,4.10
2017-10-28T06:50:51.965Z,3.53
2017-10-28T06:53:19.395Z,3.80
2017-10-28T06:55:46.852Z,4.07
2017-10-28T06:58:14.333Z,3.07
2017-10-28T07:00:41.763Z,3.10
2017-10-28T07:03:09.194Z,3.63
2017-10-28T07:05:36.671Z,2.67
2017-10-28T07:08:04.308Z,3.30
2017-10-28T07:10:31.765Z,3.30
2017-10-28T07:12:59.195Z,4.20
2017-10-28T07:15:26.889Z,3.17
2017-10-28T07:17:54.451Z,3.03
2017-10-28T07:20:21.884Z,2.27
2017-10-28T07:22:49.325Z,2.22
2017-10-28T07:25:16.845Z,3.27
2017-10-28T07:27:44.298Z,2.70
2017-10-28T07:30:11.747Z,2.50
2017-10-28T07:32:39.255Z,3.03
2017-10-28T07:35:06.747Z,2.70
2017-10-28T07:37:34.190Z,3.43
2017-10-28T07:40:01.657Z,3.00
2017-10-28T07:42:29.077Z,3.10
2017-10-28T07:44:56.539Z,2.80
2017-10-28T07:47:23.985Z,2.62
2017-10-28T07:49:51.454Z,3.93
2017-10-28T07:52:18.909Z,3.23
2017-10-28T07:54:46.339Z,2.67
2017-10-28T07:57:13.802Z,2.77
2017-10-28T07:59:41.277Z,2.60
2017-10-28T08:02:08.706Z,3.17
2017-10-28T08:04:36.139Z,2.70
2017-10-28T08:07:03.644Z,2.70
2017-10-28T08:09:31.104Z,2.60
2017-10-28T08:11:58.540Z,2.75
2017-10-28T08:14:26.049Z,3.37
2017-10-28T08:16:53.592Z,2.93
2017-10-28T08:19:20.990Z,3.00
2017-10-28T08:21:48.455Z,3.43
2017-10-28T08:24:15.871Z,2.80
2017-10-28T08:26:43.437Z,3.00
2017-10-28T08:29:10.889Z,3.20
2017-10-28T08:31:38.353Z,3.05
2017-10-28T08:34:05.906Z,3.17
2017-10-28T08:36:33.382Z,3.30
2017-10-28T08:39:00.822Z,2.50
2017-10-28T08:41:28.234Z,2.83
2017-10-28T08:43:55.689Z,2.93
2017-10-28T08:46:23.151Z,3.13
2017-10-28T08:48:50.708Z,3.40
2017-10-28T08:51:18.192Z,2.60
2017-10-28T08:53:45.602Z,2.97
2017-10-28T08:56:13.113Z,2.80
2017-10-28T08:58:40.578Z,2.80
2017-10-28T09:01:08.007Z,3.20
2017-10-28T09:03:35.438Z,3.40
2017-10-28T09:06:02.931Z,4.80
2017-10-28T09:08:30.449Z,3.00
2017-10-28T09:10:57.945Z,3.00
2017-10-28T09:13:25.426Z,2.90
